Time;durP1;ratioP1;P1;durP2;ratioP2;P2;SDS_P1;SDS_P2;PMS_P1;PMS_P2;Temp;Humidity;BMP_temperature;BMP_pressure;BME280_temperature;BME280_humidity;BME280_pressure;Samples;Min_cycle;Max_cycle;Signal;HPM_P1;HPM_P2
2023/03/29 00:01:30;;;;;;;8.45;4.45;;;;;;;5.53;100.00;101472.53;5001820;28;20052;-75
2023/03/29 00:03:57;;;;;;;5.60;3.58;;;;;;;5.53;100.00;101477.81;5025940;28;20060;-75
2023/03/29 00:06:23;;;;;;;10.25;4.50;;;;;;;5.58;100.00;101475.06;5007562;28;20045;-75
2023/03/29 00:08:50;;;;;;;11.25;4.40;;;;;;;5.59;100.00;101476.81;4991020;28;20037;-76
2023/03/29 00:11:17;;;;;;;11.20;4.22;;;;;;;5.60;100.00;101474.13;5005242;28;20184;-76
2023/03/29 00:13:43;;;;;;;8.85;4.32;;;;;;;5.62;100.00;101476.75;5008384;28;20491;-76
2023/03/29 00:16:11;;;;;;;9.00;4.53;;;;;;;5.60;100.00;101468.81;5024748;28;20116;-75
2023/03/29 00:18:38;;;;;;;8.23;4.22;;;;;;;5.62;100.00;101471.44;5024794;28;20038;-77
2023/03/29 00:21:05;;;;;;;7.15;3.80;;;;;;;5.55;100.00;101451.31;5025455;28;20580;-77
2023/03/29 00:23:34;;;;;;;9.75;4.30;;;;;;;5.57;100.00;101447.72;4999463;28;20056;-75
2023/03/29 00:26:01;;;;;;;11.73;4.68;;;;;;;5.61;100.00;101444.09;5009587;28;20034;-74
2023/03/29 00:28:27;;;;;;;10.57;4.28;;;;;;;5.63;100.00;101447.56;5001540;28;20093;-76
2023/03/29 00:31:02;;;;;;;9.50;3.90;;;;;;;5.62;100.00;101429.06;5009901;28;20065;-76
2023/03/29 00:33:28;;;;;;;9.77;4.20;;;;;;;5.61;100.00;101422.03;5003957;28;20037;-76
2023/03/29 00:35:55;;;;;;;10.60;4.55;;;;;;;5.59;100.00;101421.19;5023488;28;20398;-75
2023/03/29 00:38:21;;;;;;;8.88;4.32;;;;;;;5.57;100.00;101415.06;5007663;28;20049;-75
2023/03/29 00:40:47;;;;;;;9.55;4.65;;;;;;;5.57;100.00;101418.59;5011576;28;20056;-75
2023/03/29 00:43:14;;;;;;;9.00;4.25;;;;;;;5.57;100.00;101415.06;5025557;28;20151;-76
2023/03/29 00:45:41;;;;;;;7.38;4.53;;;;;;;5.59;100.00;101413.22;5025247;28;20041;-74
2023/03/29 00:48:11;;;;;;;11.23;4.78;;;;;;;5.61;100.00;101411.44;5026922;28;20052;-74
2023/03/29 00:50:46;;;;;;;11.13;4.30;;;;;;;5.69;100.00;101404.16;5026374;28;20018;-75
2023/03/29 00:53:20;;;;;;;7.45;4.43;;;;;;;5.73;100.00;101404.94;5004051;28;20034;-76
2023/03/29 00:56:06;;;;;;;9.60;4.72;;;;;;;5.77;100.00;101401.31;5010101;28;20132;-75
2023/03/29 00:58:42;;;;;;;12.50;4.85;;;;;;;5.77;100.00;101396.88;5009758;28;20540;-75
2023/03/29 01:01:14;;;;;;;7.43;4.60;;;;;;;5.77;100.00;101388.06;5006169;28;20047;-77
2023/03/29 01:03:48;;;;;;;6.65;4.30;;;;;;;5.80;100.00;101391.50;5009708;28;20433;-74
2023/03/29 01:06:16;;;;;;;6.80;4.32;;;;;;;5.80;100.00;101386.19;5001845;28;20022;-73
2023/03/29 01:09:03;;;;;;;12.10;5.15;;;;;;;5.82;100.00;101383.50;5032333;28;20064;-76
2023/03/29 01:11:42;;;;;;;10.07;4.65;;;;;;;5.85;100.00;101374.59;5013867;28;20037;-75
2023/03/29 01:14:28;;;;;;;12.80;4.93;;;;;;;5.88;100.00;101382.47;4997096;28;20037;-73
2023/03/29 01:16:56;;;;;;;9.95;4.28;;;;;;;5.91;100.00;101377.06;5007293;28;20120;-74
2023/03/29 01:19:26;;;;;;;8.35;4.50;;;;;;;5.97;100.00;101387.56;4995651;28;20197;-73
2023/03/29 01:22:04;;;;;;;10.70;4.40;;;;;;;6.04;100.00;101377.63;4996805;28;20055;-75
2023/03/29 01:24:55;;;;;;;9.65;4.50;;;;;;;6.10;100.00;101375.69;5009784;28;20048;-74
2023/03/29 01:27:34;;;;;;;11.30;4.65;;;;;;;6.11;100.00;101385.38;4995222;28;20077;-75
2023/03/29 01:30:25;;;;;;;7.65;4.13;;;;;;;6.12;100.00;101371.22;5011733;28;20060;-73
2023/03/29 01:33:10;;;;;;;6.38;3.97;;;;;;;6.17;100.00;101368.44;5012614;28;20037;-74
2023/03/29 01:35:43;;;;;;;10.00;5.15;;;;;;;6.20;100.00;101371.84;5024971;28;20037;-75
2023/03/29 01:38:14;;;;;;;11.68;5.07;;;;;;;6.24;100.00;101363.81;5009335;28;20080;-75
2023/03/29 01:40:40;;;;;;;;;;;;;;;6.27;100.00;101367.25;5005816;28;20032;-77
2023/03/29 01:43:19;;;;;;;8.75;4.30;;;;;;;6.31;100.00;101357.44;5021348;28;19924;-75
2023/03/29 01:45:47;;;;;;;11.82;4.82;;;;;;;6.28;100.00;101346.91;5021650;28;20029;-74
2023/03/29 01:48:44;;;;;;;11.02;5.00;;;;;;;6.32;100.00;101345.94;5028101;28;20033;-74
2023/03/29 01:51:25;;;;;;;9.38;5.22;;;;;;;6.31;100.00;101350.34;5027409;28;20091;-75
2023/03/29 01:54:05;;;;;;;7.65;4.57;;;;;;;6.33;100.00;101351.16;5008890;28;20057;-75
2023/03/29 01:56:36;;;;;;;13.15;5.13;;;;;;;6.34;100.00;101346.75;4994765;28;20059;-75
2023/03/29 01:59:03;;;;;;;;;;;;;;;6.39;100.00;101347.44;4994545;28;20029;-74
2023/03/29 02:01:47;;;;;;;13.82;5.60;;;;;;;6.37;100.00;101346.63;5023132;28;19913;-74
2023/03/29 02:04:17;;;;;;;7.75;4.47;;;;;;;6.36;100.00;101343.13;5028407;28;20059;-76
2023/03/29 02:06:44;;;;;;;9.50;4.65;;;;;;;6.38;100.00;101338.63;5006848;28;20064;-75
2023/03/29 02:09:11;;;;;;;8.07;4.32;;;;;;;6.39;100.00;101339.50;5010199;28;20030;-75
2023/03/29 02:11:38;;;;;;;12.68;5.10;;;;;;;6.43;100.00;101333.22;5005765;28;20518;-74
2023/03/29 02:14:04;;;;;;;9.82;5.03;;;;;;;6.45;100.00;101320.78;4973235;28;20041;-74
2023/03/29 02:16:35;;;;;;;13.30;5.05;;;;;;;6.48;100.00;101331.25;5006079;28;20029;-73
2023/03/29 02:19:01;;;;;;;;;;;;;;;6.52;100.00;101322.31;5021115;28;20037;-74
2023/03/29 02:21:48;;;;;;;8.75;4.88;;;;;;;6.50;100.00;101325.91;4999627;28;19956;-75
2023/03/29 02:24:17;;;;;;;12.27;5.07;;;;;;;6.51;100.00;101325.88;5002607;28;20045;-75
2023/03/29 02:26:43;;;;;;;12.52;4.63;;;;;;;6.50;100.00;101318.81;5006789;28;20034;-74
2023/03/29 02:29:10;;;;;;;12.02;6.00;;;;;;;6.52;100.00;101324.09;4989809;28;20026;-76
2023/03/29 02:31:48;;;;;;;11.18;5.28;;;;;;;6.55;100.00;101319.56;4990082;28;20021;-75
2023/03/29 02:34:18;;;;;;;9.98;5.25;;;;;;;6.56;100.00;101316.00;5003752;28;20131;-74
2023/03/29 02:36:53;;;;;;;8.05;4.53;;;;;;;6.60;100.00;101320.28;5004767;28;20063;-75
2023/03/29 02:39:20;;;;;;;10.70;5.85;;;;;;;6.62;100.00;101316.69;5006218;28;20042;-75
2023/03/29 02:41:48;;;;;;;8.77;5.10;;;;;;;6.60;100.00;101307.03;4990291;28;20510;-74
2023/03/29 02:44:17;;;;;;;12.70;5.55;;;;;;;6.63;100.00;101310.50;4986343;28;20026;-75
2023/03/29 02:46:45;;;;;;;11.98;5.38;;;;;;;6.64;100.00;101315.75;5002505;28;20038;-76
2023/03/29 02:49:11;;;;;;;9.80;5.10;;;;;;;6.66;100.00;101302.44;5017615;28;20026;-75
2023/03/29 02:51:38;;;;;;;8.00;5.57;;;;;;;6.63;100.00;101302.53;4987852;28;20084;-75
2023/03/29 02:54:11;;;;;;;10.50;5.38;;;;;;;6.64;100.00;101296.34;5005740;28;20115;-75
2023/03/29 02:56:47;;;;;;;9.35;6.05;;;;;;;6.66;100.00;101291.84;5001985;28;20117;-75
2023/03/29 02:59:14;;;;;;;10.10;5.40;;;;;;;6.65;100.00;101292.75;4988959;28;20058;-75
2023/03/29 03:01:43;;;;;;;15.98;5.57;;;;;;;6.65;100.00;101290.94;4987813;28;20043;-75
2023/03/29 03:04:10;;;;;;;8.50;5.38;;;;;;;6.68;100.00;101290.00;4990091;28;20491;-75
2023/03/29 03:06:38;;;;;;;10.07;5.40;;;;;;;6.71;100.00;101284.56;5005100;28;20050;-75
2023/03/29 03:09:05;;;;;;;10.20;5.60;;;;;;;6.69;100.00;101281.09;5001565;28;20034;-76
2023/03/29 03:11:34;;;;;;;9.80;5.65;;;;;;;6.71;100.00;101284.56;4939791;28;1306141;-76
2023/03/29 03:14:01;;;;;;;12.95;6.43;;;;;;;6.69;100.00;101276.69;4990520;28;20042;-75
2023/03/29 03:16:28;;;;;;;12.93;5.45;;;;;;;6.69;100.00;101276.69;5007755;28;20034;-75
2023/03/29 03:18:54;;;;;;;12.65;5.57;;;;;;;6.70;100.00;101272.25;5000800;28;20046;-76
2023/03/29 03:21:21;;;;;;;8.73;5.53;;;;;;;6.71;100.00;101277.50;5005392;28;20103;-74
2023/03/29 03:23:48;;;;;;;10.82;5.78;;;;;;;6.70;100.00;101278.41;5002422;28;20171;-75
2023/03/29 03:26:15;;;;;;;9.77;5.38;;;;;;;6.73;100.00;101261.53;4999602;28;20038;-75
2023/03/29 03:28:44;;;;;;;12.32;5.72;;;;;;;6.74;100.00;101260.59;5002859;28;20026;-75
2023/03/29 03:31:23;;;;;;;12.23;5.30;;;;;;;6.76;100.00;101267.59;5004947;28;20030;-76
2023/03/29 03:34:16;;;;;;;12.50;5.97;;;;;;;6.76;100.00;101261.41;4998620;28;20144;-75
2023/03/29 03:36:54;;;;;;;11.40;5.68;;;;;;;6.73;100.00;101256.25;5006064;28;20081;-75
2023/03/29 03:39:20;;;;;;;10.38;5.65;;;;;;;6.39;100.00;101196.28;4995296;28;20065;-75
2023/03/29 03:41:47;;;;;;;9.18;5.15;;;;;;;6.76;100.00;101262.28;4987021;28;20029;-75
2023/03/29 03:44:16;;;;;;;15.98;5.72;;;;;;;6.78;100.00;101262.22;4987819;28;20087;-75
2023/03/29 03:46:43;;;;;;;11.90;5.82;;;;;;;6.75;100.00;101271.19;4988890;28;20108;-75
2023/03/29 03:49:10;;;;;;;14.73;5.57;;;;;;;6.77;100.00;101269.34;5005042;28;20132;-75
2023/03/29 03:51:40;;;;;;;11.38;5.90;;;;;;;6.77;100.00;101266.69;5004446;28;20037;-76
2023/03/29 03:54:07;;;;;;;9.30;5.82;;;;;;;6.78;100.00;101262.22;5000864;28;20037;-77
2023/03/29 03:56:34;;;;;;;13.10;5.85;;;;;;;6.79;100.00;101267.50;5001971;28;20148;-79
2023/03/29 03:59:03;;;;;;;10.05;5.63;;;;;;;6.83;100.00;101265.63;5003962;28;20058;-81
2023/03/29 04:01:42;;;;;;;11.80;6.13;;;;;;;6.84;100.00;101263.81;4989367;28;20081;-80
2023/03/29 04:04:18;;;;;;;9.40;5.70;;;;;;;6.82;100.00;101258.56;4975974;28;20199;-82
2023/03/29 04:07:05;;;;;;;12.55;6.22;;;;;;;6.82;100.00;101266.53;5001270;28;20556;-81
2023/03/29 04:09:51;;;;;;;11.02;6.20;;;;;;;6.85;100.00;101257.59;5007842;28;20101;-82
2023/03/29 04:12:37;;;;;;;12.68;5.78;;;;;;;6.87;100.00;101264.59;5019371;28;20119;-81
2023/03/29 04:15:07;;;;;;;14.18;6.00;;;;;;;6.87;100.00;101255.75;4991035;28;20030;-82
2023/03/29 04:17:34;;;;;;;9.98;5.90;;;;;;;6.85;100.00;101255.81;5005417;28;20103;-82
2023/03/29 04:20:30;;;;;;;13.05;6.22;;;;;;;6.87;100.00;101251.31;4999846;28;20129;-82
2023/03/29 04:22:57;;;;;;;12.10;5.93;;;;;;;6.87;100.00;101258.41;5002184;28;20140;-82
2023/03/29 04:25:24;;;;;;;9.73;5.50;;;;;;;6.87;100.00;101248.66;5005233;28;20498;-81
2023/03/29 04:28:11;;;;;;;16.13;6.13;;;;;;;6.85;100.00;101233.72;5000465;28;20052;-81
2023/03/29 04:31:31;;;;;;;13.63;6.05;;;;;;;6.91;100.00;101230.84;4998738;28;20128;-82
2023/03/29 04:34:21;;;;;;;11.25;5.82;;;;;;;6.90;100.00;101230.00;4966189;28;20041;-83
2023/03/29 04:36:51;;;;;;;9.02;5.30;;;;;;;6.93;100.00;101235.22;4992317;28;20507;-82
2023/03/29 04:39:21;;;;;;;10.93;6.43;;;;;;;6.93;100.00;101232.56;4979553;28;20487;-82
2023/03/29 04:42:13;;;;;;;10.20;5.57;;;;;;;6.98;100.00;101230.59;5005289;28;20084;-81
2023/03/29 04:44:41;;;;;;;10.30;5.47;;;;;;;6.95;100.00;101228.06;4989613;28;20034;-82
2023/03/29 04:47:28;;;;;;;8.25;5.90;;;;;;;6.98;100.00;101235.03;4992345;28;20030;-82
2023/03/29 04:50:04;;;;;;;14.25;5.93;;;;;;;6.98;100.00;101225.28;5008187;28;20152;-81
2023/03/29 04:52:58;;;;;;;13.88;6.50;;;;;;;7.02;100.00;101222.53;5007781;28;20037;-83
2023/03/29 04:55:28;;;;;;;14.75;6.15;;;;;;;7.00;100.00;101227.88;5006895;28;20034;-81
2023/03/29 04:58:01;;;;;;;11.23;5.90;;;;;;;7.01;100.00;101232.28;4993892;28;20514;-81
2023/03/29 05:00:35;;;;;;;13.18;6.35;;;;;;;7.01;100.00;101223.44;5007715;28;20517;-81
2023/03/29 05:03:22;;;;;;;15.23;6.30;;;;;;;7.02;100.00;101222.53;5012060;28;20050;-80
2023/03/29 05:06:14;;;;;;;11.40;5.95;;;;;;;7.05;100.00;101222.44;5018132;28;20109;-81
2023/03/29 05:08:41;;;;;;;13.10;6.25;;;;;;;7.06;100.00;101217.03;5007026;28;20037;-81
2023/03/29 05:11:14;;;;;;;13.23;6.13;;;;;;;7.08;100.00;101219.66;5008967;28;21260;-80
2023/03/29 05:13:42;;;;;;;15.82;6.82;;;;;;;7.11;100.00;101224.88;5012929;28;20050;-82
2023/03/29 05:16:09;;;;;;;9.45;6.43;;;;;;;7.15;100.00;101221.19;5029571;28;20033;-80
2023/03/29 05:18:36;;;;;;;8.65;6.43;;;;;;;7.16;100.00;101217.63;4996512;28;20037;-83
2023/03/29 05:21:04;;;;;;;13.57;6.22;;;;;;;7.19;100.00;101228.09;5006991;28;20951;-82
2023/03/29 05:23:33;;;;;;;12.70;6.63;;;;;;;7.22;100.00;101222.69;4981500;28;20111;-82
2023/03/29 05:26:06;;;;;;;11.82;6.15;;;;;;;7.25;100.00;101221.72;5021658;28;20029;-82
2023/03/29 05:28:34;;;;;;;11.63;6.05;;;;;;;7.25;100.00;101232.34;5011424;28;20533;-83
2023/03/29 05:31:04;;;;;;;11.27;6.47;;;;;;;7.26;100.00;101234.94;4999678;28;20396;-83
2023/03/29 05:33:30;;;;;;;13.60;6.40;;;;;;;7.28;100.00;101221.63;4999515;28;20088;-81
2023/03/29 05:36:04;;;;;;;12.18;6.47;;;;;;;7.29;100.00;101226.88;4998625;28;20515;-81
2023/03/29 05:38:33;;;;;;;13.30;6.63;;;;;;;7.30;100.00;101223.28;5000300;28;20037;-83
2023/03/29 05:41:01;;;;;;;11.23;5.97;;;;;;;7.33;100.00;101220.53;4980835;28;20562;-81
2023/03/29 05:43:34;;;;;;;12.20;6.78;;;;;;;7.35;100.00;101223.13;5008817;28;20047;-83
2023/03/29 05:46:01;;;;;;;15.60;7.18;;;;;;;7.37;100.00;101224.81;4992813;28;20091;-80
2023/03/29 05:48:28;;;;;;;11.35;6.38;;;;;;;7.41;100.00;101227.34;5000008;28;20049;-81
2023/03/29 05:50:56;;;;;;;14.65;7.65;;;;;;;7.40;100.00;101223.84;4999482;28;20482;-82
2023/03/29 05:53:25;;;;;;;13.40;7.00;;;;;;;7.42;100.00;101231.72;4998090;28;20068;-80
2023/03/29 05:55:51;;;;;;;11.77;7.15;;;;;;;7.48;100.00;101231.53;5028412;28;20033;-80
2023/03/29 05:58:20;;;;;;;13.32;7.05;;;;;;;7.52;100.00;101231.34;4991762;28;20099;-80
2023/03/29 06:00:48;;;;;;;16.73;7.38;;;;;;;7.56;100.00;101226.78;4995835;28;20362;-78
2023/03/29 06:03:47;;;;;;;13.27;7.50;;;;;;;7.58;100.00;101230.25;4995113;28;20113;-80
2023/03/29 06:06:15;;;;;;;17.38;8.93;;;;;;;7.56;100.00;101240.06;5020554;28;20037;-78
2023/03/29 06:08:42;;;;;;;17.67;7.32;;;;;;;7.57;100.00;101229.41;4997166;28;20034;-79
2023/03/29 06:11:17;;;;;;;15.85;7.20;;;;;;;7.63;100.00;101238.06;5028039;28;20111;-80
2023/03/29 06:14:03;;;;;;;17.00;8.07;;;;;;;7.71;100.00;101226.22;5028869;28;20356;-83
2023/03/29 06:16:31;;;;;;;13.07;7.18;;;;;;;7.76;100.00;101240.22;5013895;28;20528;-81
2023/03/29 06:18:58;;;;;;;15.93;7.22;;;;;;;7.83;100.00;101232.00;5010918;28;20038;-81
2023/03/29 06:21:26;;;;;;;15.65;7.18;;;;;;;7.87;100.00;101238.97;5011663;28;20395;-80
2023/03/29 06:23:54;;;;;;;16.15;7.55;;;;;;;7.92;100.00;101237.84;4995714;28;20040;-79
2023/03/29 06:26:21;;;;;;;18.00;7.63;;;;;;;7.95;100.00;101228.88;5009998;28;20279;-80
2023/03/29 06:28:48;;;;;;;12.40;7.82;;;;;;;8.03;100.00;101232.09;4998326;28;20413;-79
2023/03/29 06:31:15;;;;;;;13.07;7.53;;;;;;;8.08;100.00;101235.47;5018574;28;20564;-80
2023/03/29 06:33:42;;;;;;;13.80;7.63;;;;;;;8.14;100.00;101229.03;5014912;28;20465;-80
2023/03/29 06:36:49;;;;;;;20.40;7.60;;;;;;;8.17;100.00;101234.25;5032134;28;20041;-80
2023/03/29 06:39:17;;;;;;;15.27;7.63;;;;;;;8.21;100.00;101237.66;5003615;28;20129;-79
2023/03/29 06:42:11;;;;;;;14.95;7.43;;;;;;;8.26;100.00;101233.03;4995124;28;20064;-78
2023/03/29 06:45:00;;;;;;;13.63;8.45;;;;;;;8.29;100.00;101246.19;4991286;28;20053;-81
2023/03/29 06:47:29;;;;;;;16.40;8.27;;;;;;;8.34;100.00;101241.56;4998863;28;20087;-80
2023/03/29 06:49:56;;;;;;;18.30;8.55;;;;;;;8.41;100.00;101232.41;5015185;28;20121;-80
2023/03/29 06:52:55;;;;;;;17.30;8.13;;;;;;;8.48;100.00;101244.56;4980670;28;20045;-80
2023/03/29 06:55:23;;;;;;;13.60;8.75;;;;;;;8.53;100.00;101241.72;5008568;28;20048;-80
2023/03/29 06:57:51;;;;;;;14.48;8.65;;;;;;;8.60;100.00;101242.34;5013588;28;20095;-79
2023/03/29 07:00:22;;;;;;;16.50;8.07;;;;;;;8.67;100.00;101243.84;5014012;28;20038;-81
2023/03/29 07:03:18;;;;;;;19.42;9.48;;;;;;;8.72;100.00;101253.34;5031047;28;20044;-78
2023/03/29 07:05:46;;;;;;;17.00;8.95;;;;;;;8.77;100.00;101250.50;4997983;28;20038;-80
2023/03/29 07:08:15;;;;;;;14.77;8.70;;;;;;;8.77;100.00;101244.31;5014360;28;20060;-78
2023/03/29 07:11:02;;;;;;;16.90;8.85;;;;;;;8.79;100.00;101256.63;5017012;28;20041;-80
2023/03/29 07:13:57;;;;;;;12.85;8.57;;;;;;;8.81;100.00;101256.56;5020128;28;20131;-81
2023/03/29 07:16:26;;;;;;;14.25;9.30;;;;;;;8.84;100.00;101251.97;5031012;28;20375;-79
2023/03/29 07:18:52;;;;;;;16.63;9.20;;;;;;;8.86;100.00;101250.13;5014965;28;20052;-79
2023/03/29 07:21:39;;;;;;;16.52;8.48;;;;;;;8.89;100.00;101249.09;5002798;28;20123;-80
2023/03/29 07:24:09;;;;;;;14.68;8.73;;;;;;;8.89;100.00;101257.97;5013644;28;20037;-79
2023/03/29 07:26:36;;;;;;;12.88;8.60;;;;;;;8.91;100.00;101252.59;5013363;28;20045;-78
2023/03/29 07:29:02;;;;;;;16.95;8.88;;;;;;;8.94;100.00;101252.44;5024297;28;20099;-78
2023/03/29 07:31:29;;;;;;;14.02;8.70;;;;;;;9.06;100.00;101246.63;4997425;28;20030;-78
2023/03/29 07:34:10;;;;;;;18.35;8.98;;;;;;;9.15;100.00;101250.69;5013248;28;20038;-79
2023/03/29 07:36:38;;;;;;;17.50;9.32;;;;;;;9.24;100.00;101252.94;5009110;28;20075;-79
2023/03/29 07:39:07;;;;;;;15.50;8.88;;;;;;;9.35;100.00;101259.59;5012240;28;20111;-78
2023/03/29 07:41:36;;;;;;;17.67;10.15;;;;;;;9.36;100.00;101264.88;4997597;28;20065;-79
2023/03/29 07:44:11;;;;;;;18.40;9.77;;;;;;;9.43;100.00;101270.78;4995447;28;20037;-79
2023/03/29 07:46:38;;;;;;;15.18;9.13;;;;;;;9.41;100.00;101272.66;5013362;28;20417;-80
2023/03/29 07:49:06;;;;;;;17.17;9.82;;;;;;;9.51;100.00;101269.53;5031150;28;20042;-79
2023/03/29 07:51:35;;;;;;;14.80;9.25;;;;;;;9.58;100.00;101258.59;5008665;28;20042;-79
2023/03/29 07:54:06;;;;;;;22.52;10.30;;;;;;;9.56;100.00;101265.78;5005913;28;20529;-79
2023/03/29 07:56:38;;;;;;;27.85;10.82;;;;;;;9.57;100.00;101256.88;5029506;28;20108;-78
2023/03/29 07:59:31;;;;;;;20.70;10.10;;;;;;;9.62;100.00;101263.72;5009056;28;20049;-80
2023/03/29 08:02:15;;;;;;;17.35;10.45;;;;;;;9.66;100.00;101256.47;5012861;28;20497;-79
2023/03/29 08:04:48;;;;;;;22.10;10.38;;;;;;;9.66;100.00;101259.97;4994379;28;20038;-80
2023/03/29 08:07:17;;;;;;;25.77;11.25;;;;;;;9.74;100.00;101262.28;5012549;28;20049;-82
2023/03/29 08:10:08;;;;;;;20.17;10.40;;;;;;;9.82;100.00;101262.84;4988845;28;20033;-80
2023/03/29 08:13:14;;;;;;;24.70;10.90;;;;;;;9.88;100.00;101270.53;4998097;28;20140;-80
2023/03/29 08:16:04;;;;;;;23.60;11.32;;;;;;;10.01;100.00;101270.00;4979878;28;20542;-78
2023/03/29 08:18:36;;;;;;;24.98;11.80;;;;;;;10.04;100.00;101261.81;5013267;28;20033;-80
2023/03/29 08:21:04;;;;;;;27.17;12.48;;;;;;;10.15;100.00;101277.34;4993880;28;20084;-78
2023/03/29 08:23:31;;;;;;;25.85;11.90;;;;;;;10.18;100.00;101269.22;4993546;28;20459;-79
2023/03/29 08:26:21;;;;;;;23.45;11.57;;;;;;;10.32;100.00;101265.91;5018030;28;20041;-81
2023/03/29 08:28:50;;;;;;;23.25;11.23;;;;;;;10.44;100.00;101260.84;4985295;28;20034;-78
2023/03/29 08:31:18;;;;;;;19.98;11.05;;;;;;;10.51;100.00;101258.75;5009762;28;20197;-79
2023/03/29 08:33:45;;;;;;;22.15;12.00;;;;;;;10.50;100.00;101249.00;4995639;28;20068;-78
2023/03/29 08:36:31;;;;;;;23.15;11.50;;;;;;;10.63;100.00;101246.59;5026299;28;20037;-78
2023/03/29 08:39:04;;;;;;;21.65;11.23;;;;;;;10.73;100.00;101245.19;4983659;28;20076;-80
2023/03/29 08:41:43;;;;;;;21.10;11.65;;;;;;;10.83;100.00;101238.47;5046047;28;20042;-78
2023/03/29 08:44:38;;;;;;;23.55;12.05;;;;;;;10.97;100.00;101245.78;5029682;28;20029;-78
2023/03/29 08:47:40;;;;;;;19.45;10.90;;;;;;;11.03;100.00;101255.28;5012222;28;20042;-79
2023/03/29 08:50:12;;;;;;;22.42;12.15;;;;;;;11.04;100.00;101259.69;5003214;28;20395;-79
2023/03/29 08:52:49;;;;;;;19.33;12.50;;;;;;;11.01;100.00;101265.19;4996489;28;20390;-79
2023/03/29 08:55:40;;;;;;;22.92;12.05;;;;;;;10.88;100.00;101248.91;4997441;28;20129;-78
2023/03/29 08:58:30;;;;;;;20.55;11.88;;;;;;;10.95;100.00;101262.84;5000884;28;20494;-78
2023/03/29 09:00:58;;;;;;;20.38;11.20;;;;;;;10.95;100.00;101262.84;5016341;28;20041;-77
2023/03/29 09:03:46;;;;;;;28.95;12.07;;;;;;;10.97;100.00;101264.47;5007977;28;20030;-79
2023/03/29 09:06:20;;;;;;;23.05;12.30;;;;;;;11.16;100.00;101263.56;4996259;28;20033;-80
2023/03/29 09:08:51;;;;;;;20.17;11.75;;;;;;;11.20;100.00;101260.66;4996313;28;20125;-81
2023/03/29 09:11:30;;;;;;;20.50;12.52;;;;;;;11.24;100.00;101264.03;5012673;28;20040;-79
2023/03/29 09:14:08;;;;;;;24.42;12.70;;;;;;;11.23;100.00;101265.81;5011306;28;20041;-80
2023/03/29 09:16:48;;;;;;;25.60;13.50;;;;;;;11.31;100.00;101262.75;5011246;28;20116;-79
2023/03/29 09:19:34;;;;;;;23.70;12.90;;;;;;;11.42;100.00;101267.53;5015562;28;20072;-78
2023/03/29 09:22:17;;;;;;;25.30;13.00;;;;;;;11.49;100.00;101268.97;5032534;28;20037;-79
2023/03/29 09:24:49;;;;;;;26.42;12.35;;;;;;;11.58;100.00;101276.50;5006206;28;20042;-79
2023/03/29 09:27:33;;;;;;;20.65;12.27;;;;;;;11.58;100.00;101275.66;5015469;28;20068;-78
2023/03/29 09:30:27;;;;;;;27.90;12.48;;;;;;;11.58;100.00;101276.50;5016087;28;20055;-80
2023/03/29 09:33:01;;;;;;;27.80;12.70;;;;;;;11.66;100.00;101273.41;4996838;28;20045;-79
2023/03/29 09:35:47;;;;;;;22.85;12.95;;;;;;;11.60;100.00;101274.59;4999748;28;20033;-79
2023/03/29 09:38:14;;;;;;;21.08;11.95;;;;;;;11.52;100.00;101268.81;5027294;28;20037;-81
2023/03/29 09:40:48;;;;;;;25.10;12.10;;;;;;;11.63;100.00;101269.09;4987590;28;20033;-77
2023/03/29 09:43:32;;;;;;;21.38;12.80;;;;;;;11.60;100.00;101273.75;5031076;28;20039;-78
2023/03/29 09:46:07;;;;;;;20.83;13.05;;;;;;;11.50;100.00;101262.69;4998218;28;20041;-80
2023/03/29 09:48:38;;;;;;;28.50;13.32;;;;;;;11.56;100.00;101262.34;4997869;28;20515;-79
2023/03/29 09:51:06;;;;;;;25.65;13.48;;;;;;;11.69;100.00;101264.38;5012698;28;20167;-78
2023/03/29 09:53:33;;;;;;;23.58;13.75;;;;;;;11.92;100.00;101265.84;5003531;28;20036;-79
2023/03/29 09:56:19;;;;;;;27.95;12.98;;;;;;;12.22;100.00;101265.97;5005956;28;20038;-79
2023/03/29 09:59:11;;;;;;;24.05;13.98;;;;;;;12.50;100.00;101267.09;4996470;28;20121;-79
2023/03/29 10:01:40;;;;;;;25.73;14.05;;;;;;;12.41;100.00;101257.75;5010266;28;20121;-79
2023/03/29 10:04:11;;;;;;;34.88;15.82;;;;;;;12.32;100.00;101272.56;5014798;28;20029;-78
2023/03/29 10:06:49;;;;;;;30.73;15.73;;;;;;;12.35;100.00;101271.50;5015873;28;20052;-79
2023/03/29 10:12:49;;;;;;;28.20;14.68;;;;;;;12.42;100.00;101270.22;5031877;28;20053;-77
2023/03/29 10:15:17;;;;;;;25.85;14.52;;;;;;;12.41;100.00;101265.78;5002748;28;20107;-77
2023/03/29 10:17:44;;;;;;;23.15;14.02;;;;;;;12.55;100.00;101263.22;4977635;28;20041;-78
2023/03/29 10:20:18;;;;;;;20.30;13.30;;;;;;;12.61;100.00;101257.50;5027033;28;20103;-80
2023/03/29 10:22:55;;;;;;;27.45;14.45;;;;;;;12.59;100.00;101261.22;5014243;28;20034;-79
2023/03/29 10:25:31;;;;;;;24.98;14.65;;;;;;;12.64;100.00;101259.16;5029020;28;20152;-80
2023/03/29 10:28:07;;;;;;;18.10;12.40;;;;;;;12.71;100.00;101251.59;5014989;28;20059;-79
2023/03/29 10:30:36;;;;;;;20.65;12.45;;;;;;;12.69;100.00;101250.84;5015006;28;20107;-76
2023/03/29 10:33:03;;;;;;;21.70;13.20;;;;;;;12.70;100.00;101248.06;5032266;28;20061;-79
2023/03/29 10:35:40;;;;;;;21.08;12.75;;;;;;;12.75;100.00;101240.63;5014018;28;20033;-78
2023/03/29 10:38:11;;;;;;;22.30;13.15;;;;;;;12.73;100.00;101241.66;4998862;28;20084;-77
2023/03/29 10:40:48;;;;;;;19.80;13.27;;;;;;;12.65;100.00;101242.09;4998322;28;20483;-78
2023/03/29 10:43:53;;;;;;;22.65;13.68;;;;;;;12.47;100.00;101249.41;4999212;28;20034;-79
2023/03/29 10:46:26;;;;;;;23.40;14.05;;;;;;;12.39;100.00;101244.50;5011858;28;20034;-78
2023/03/29 10:48:57;;;;;;;19.70;13.85;;;;;;;12.41;100.00;101244.38;5031892;28;20517;-80
2023/03/29 10:51:26;;;;;;;20.98;13.65;;;;;;;12.43;100.00;101236.25;5032497;28;20243;-77
2023/03/29 10:53:52;;;;;;;22.45;14.00;;;;;;;12.38;100.00;101223.16;5015339;28;20047;-78
2023/03/29 10:56:42;;;;;;;23.17;13.88;;;;;;;12.60;100.00;101217.44;5032161;28;20060;-78
2023/03/29 10:59:27;;;;;;;23.90;13.95;;;;;;;12.73;100.00;101218.44;5004025;28;20053;-77
2023/03/29 11:02:14;;;;;;;21.17;14.52;;;;;;;12.64;100.00;101218.97;5018495;28;20033;-76
2023/03/29 11:05:16;;;;;;;23.50;14.32;;;;;;;12.57;100.00;101222.94;5031551;28;20033;-80
2023/03/29 11:08:10;;;;;;;20.58;13.75;;;;;;;12.50;100.00;101222.44;5030445;28;20072;-79
2023/03/29 11:10:58;;;;;;;25.17;12.07;;;;;;;12.30;100.00;101209.31;5003460;28;20030;-80
2023/03/29 11:13:37;;;;;;;22.48;11.93;;;;;;;12.03;100.00;101216.13;5024649;28;20110;-78
2023/03/29 11:16:07;;;;;;;18.65;11.88;;;;;;;11.91;100.00;101213.28;5031452;28;20056;-80
2023/03/29 11:19:10;;;;;;;20.88;12.38;;;;;;;11.88;100.00;101214.28;5029821;28;20045;-78
2023/03/29 11:21:46;;;;;;;20.08;13.93;;;;;;;11.92;100.00;101218.53;5012620;28;20129;-78
2023/03/29 11:24:41;;;;;;;27.58;14.88;;;;;;;11.84;100.00;101207.38;5015717;28;20033;-79
2023/03/29 11:27:46;;;;;;;24.15;15.45;;;;;;;12.03;100.00;101213.47;5014794;28;20033;-78
2023/03/29 11:30:22;;;;;;;25.40;16.00;;;;;;;12.22;100.00;101215.97;5032879;28;20057;-81
2023/03/29 11:33:05;;;;;;;28.02;17.58;;;;;;;12.31;100.00;101233.31;5014013;28;20044;-79
2023/03/29 11:36:02;;;;;;;31.50;17.48;;;;;;;12.32;100.00;101210.97;5030540;28;20037;-79
2023/03/29 11:38:31;;;;;;;27.00;18.13;;;;;;;12.45;100.00;101212.94;5000086;28;20037;-78
2023/03/29 11:41:24;;;;;;;26.45;18.13;;;;;;;12.61;100.00;101209.28;5011659;28;20033;-80
2023/03/29 11:43:55;;;;;;;26.40;17.42;;;;;;;12.64;100.00;101213.63;5030999;28;20045;-78
2023/03/29 11:46:36;;;;;;;26.33;17.25;;;;;;;12.64;100.00;101218.97;5001489;28;20312;-78
2023/03/29 11:49:20;;;;;;;;;;;;;;;12.63;100.00;101222.59;5030550;28;20033;-78
2023/03/29 11:52:02;;;;;;;30.05;17.45;;;;;;;12.60;100.00;101229.00;4995203;28;20022;-78
2023/03/29 11:54:47;;;;;;;28.65;18.33;;;;;;;12.55;100.00;101240.94;5012782;28;20108;-79